Time;durP1;ratioP1;P1;durP2;ratioP2;P2;SDS_P1;SDS_P2;PMS_P1;PMS_P2;Temp;Humidity;BMP_temperature;BMP_pressure;BME280_temperature;BME280_humidity;BME280_pressure;Samples;Min_cycle;Max_cycle;Signal;HPM_P1;HPM_P2
2023/04/12 00:00:22;;;;;;;6.25;1.50;;;10.30;99.90;;;;;;5070947;28;20425;-54
2023/04/12 00:02:52;;;;;;;10.23;1.65;;;10.30;99.90;;;;;;5071591;28;20733;-53
2023/04/12 00:05:21;;;;;;;6.85;1.73;;;10.20;99.90;;;;;;5071372;28;20419;-54
2023/04/12 00:07:48;;;;;;;6.88;1.20;;;10.20;99.90;;;;;;5071650;28;20709;-53
2023/04/12 00:10:14;;;;;;;7.47;1.70;;;10.10;99.90;;;;;;5071457;28;20383;-53
2023/04/12 00:12:40;;;;;;;6.25;1.77;;;10.20;99.90;;;;;;5071213;28;20402;-53
2023/04/12 00:15:07;;;;;;;8.30;1.40;;;10.20;99.90;;;;;;5071397;28;20376;-54
2023/04/12 00:17:32;;;;;;;7.38;1.38;;;10.00;99.90;;;;;;5069987;28;20384;-53
2023/04/12 00:19:58;;;;;;;7.50;1.90;;;9.90;99.90;;;;;;5071446;28;20387;-53
2023/04/12 00:22:25;;;;;;;9.98;1.80;;;9.90;99.90;;;;;;5070181;28;20722;-53
2023/04/12 00:24:51;;;;;;;9.80;2.03;;;9.80;99.90;;;;;;5070994;28;20391;-53
2023/04/12 00:27:17;;;;;;;8.53;1.70;;;9.70;99.90;;;;;;5071263;28;20392;-53
2023/04/12 00:29:42;;;;;;;6.55;2.00;;;9.70;1.00;;;;;;5070455;28;20403;-53
2023/04/12 00:32:08;;;;;;;7.13;1.50;;;10.50;1.00;;;;;;5070953;28;20447;-53
2023/04/12 00:34:34;;;;;;;9.52;1.80;;;9.80;1.00;;;;;;5070409;28;20391;-53
2023/04/12 00:37:00;;;;;;;7.00;1.50;;;9.80;1.00;;;;;;5071083;28;20414;-53
2023/04/12 00:39:26;;;;;;;5.97;1.60;;;10.10;68.20;;;;;;5069810;28;20819;-54
2023/04/12 00:41:52;;;;;;;5.78;1.70;;;9.60;1.00;;;;;;5070773;28;20447;-53
2023/04/12 00:44:18;;;;;;;7.60;1.87;;;9.50;1.00;;;;;;5070645;28;20467;-53
2023/04/12 00:46:45;;;;;;;6.90;1.40;;;9.40;23.40;;;;;;5070675;28;20462;-53
2023/04/12 00:49:11;;;;;;;6.78;1.65;;;9.20;1.00;;;;;;5070713;28;20383;-53
2023/04/12 00:51:38;;;;;;;6.18;1.80;;;9.10;1.00;;;;;;5069862;28;20404;-53
2023/04/12 00:54:05;;;;;;;6.00;1.40;;;10.50;88.10;;;;;;5070702;28;20880;-53
2023/04/12 00:56:32;;;;;;;7.63;1.65;;;9.00;1.00;;;;;;5070091;28;20384;-54
2023/04/12 00:58:57;;;;;;;6.85;1.75;;;9.10;1.00;;;;;;5070610;28;20486;-53
2023/04/12 01:01:23;;;;;;;6.23;1.83;;;9.10;92.30;;;;;;5069709;28;20483;-54
2023/04/12 01:03:51;;;;;;;7.20;1.90;;;9.00;1.00;;;;;;5070560;28;20383;-54
2023/04/12 01:06:28;;;;;;;8.25;2.05;;;9.10;1.00;;;;;;5070358;28;20379;-53
2023/04/12 01:09:14;;;;;;;7.47;1.67;;;9.10;1.00;;;;;;5070298;28;20380;-53
2023/04/12 01:12:01;;;;;;;8.88;1.77;;;9.10;1.00;;;;;;5069574;28;20414;-54
2023/04/12 01:14:53;;;;;;;7.53;1.85;;;9.00;99.90;;;;;;5069395;28;20438;-53
2023/04/12 01:17:23;;;;;;;5.65;1.60;;;9.10;1.00;;;;;;5070575;28;20375;-54
2023/04/12 01:20:00;;;;;;;8.50;2.00;;;7.30;1.00;;;;;;5070329;28;20364;-53
2023/04/12 01:22:58;;;;;;;6.17;1.83;;;9.60;1.00;;;;;;5069439;28;20380;-53
2023/04/12 01:25:53;;;;;;;8.57;2.20;;;9.10;1.00;;;;;;5041205;28;20443;-54
2023/04/12 01:28:26;;;;;;;7.40;2.00;;;9.10;99.90;;;;;;5069352;28;20422;-53
2023/04/12 01:30:53;;;;;;;7.00;2.20;;;9.00;99.90;;;;;;5069739;28;20411;-53
2023/04/12 01:33:20;;;;;;;6.30;1.88;;;9.00;1.00;;;;;;5070042;28;20384;-53
2023/04/12 01:35:48;;;;;;;6.45;1.70;;;8.90;99.90;;;;;;5069550;28;20892;-53
2023/04/12 01:38:14;;;;;;;6.85;1.80;;;8.90;99.90;;;;;;5070055;28;20406;-53
2023/04/12 01:40:41;;;;;;;6.50;1.65;;;9.00;99.90;;;;;;5069464;28;20657;-54
2023/04/12 01:43:12;;;;;;;6.53;1.95;;;9.00;99.90;;;;;;5069982;28;20385;-53
2023/04/12 01:45:38;;;;;;;7.40;2.28;;;8.90;99.90;;;;;;5069278;28;20375;-53
2023/04/12 01:48:09;;;;;;;5.63;1.80;;;9.60;1.00;;;;;;5069601;28;20943;-54
2023/04/12 01:50:50;;;;;;;7.05;2.10;;;8.90;1.00;;;;;;5068916;28;20482;-53
2023/04/12 01:53:21;;;;;;;6.10;1.70;;;8.90;1.00;;;;;;5069573;28;20376;-53
2023/04/12 01:55:49;;;;;;;7.57;1.70;;;9.00;1.00;;;;;;5069823;28;20391;-54
2023/04/12 01:58:20;;;;;;;10.70;2.35;;;9.40;1.00;;;;;;5069690;28;20384;-54
2023/04/12 02:00:47;;;;;;;7.45;2.15;;;8.80;99.90;;;;;;5069625;28;20528;-54
2023/04/12 02:03:12;;;;;;;6.10;1.70;;;8.80;99.90;;;;;;5069815;28;20376;-54
2023/04/12 02:05:38;;;;;;;6.82;1.50;;;8.70;99.90;;;;;;5069544;28;20745;-54
2023/04/12 02:08:05;;;;;;;8.60;2.30;;;8.70;99.90;;;;;;5070029;28;20466;-54
2023/04/12 02:10:31;;;;;;;5.40;1.33;;;8.70;99.90;;;;;;5068730;28;20515;-54
2023/04/12 02:13:00;;;;;;;5.15;1.42;;;8.60;99.90;;;;;;5069548;28;20380;-54
2023/04/12 02:15:27;;;;;;;6.38;1.70;;;8.60;99.90;;;;;;5069158;28;20391;-54
2023/04/12 02:17:53;;;;;;;9.63;2.10;;;8.70;99.90;;;;;;5069225;28;20745;-53
2023/04/12 02:20:20;;;;;;;7.10;1.63;;;8.70;99.90;;;;;;5069358;28;20386;-54
2023/04/12 02:22:47;;;;;;;6.50;1.73;;;10.20;99.90;;;;;;5069951;28;20378;-54
2023/04/12 02:25:14;;;;;;;4.88;1.40;;;8.70;99.90;;;;;;5069372;28;20383;-54
2023/04/12 02:27:39;;;;;;;8.90;1.93;;;8.80;99.90;;;;;;5068576;28;20425;-54
2023/04/12 02:30:06;;;;;;;5.72;1.65;;;8.80;99.90;;;;;;5069555;28;20408;-54
2023/04/12 02:32:32;;;;;;;8.95;1.80;;;8.80;99.90;;;;;;5068849;28;20406;-54
2023/04/12 02:34:57;;;;;;;7.68;2.05;;;8.80;1.00;;;;;;5069773;28;20388;-53
2023/04/12 02:37:27;;;;;;;7.10;1.80;;;9.30;1.00;;;;;;5068824;28;20880;-54
2023/04/12 02:39:55;;;;;;;7.03;1.95;;;8.80;1.00;;;;;;5069706;28;20463;-54
2023/04/12 02:42:21;;;;;;;7.80;1.73;;;8.80;99.90;;;;;;5073262;28;20400;-54
2023/04/12 02:44:47;;;;;;;6.00;1.90;;;8.40;1.00;;;;;;5072971;28;20467;-54
2023/04/12 02:47:13;;;;;;;8.77;1.80;;;8.80;1.00;;;;;;5072979;28;20490;-54
2023/04/12 02:49:39;;;;;;;6.95;1.95;;;8.80;1.00;;;;;;5072014;28;20375;-54
2023/04/12 02:52:04;;;;;;;7.30;1.70;;;8.80;1.00;;;;;;5072574;28;20400;-54
2023/04/12 02:54:30;;;;;;;9.33;2.00;;;8.80;1.00;;;;;;5072093;28;20384;-54
2023/04/12 02:56:56;;;;;;;7.57;2.28;;;8.80;1.00;;;;;;5072788;28;20470;-53
2023/04/12 02:59:21;;;;;;;5.73;1.70;;;8.80;1.00;;;;;;5071885;28;20730;-54
2023/04/12 03:01:49;;;;;;;9.07;2.20;;;8.90;1.00;;;;;;5072592;28;20930;-54
2023/04/12 03:04:15;;;;;;;5.97;1.92;;;8.90;1.00;;;;;;5072907;28;20456;-54
2023/04/12 03:06:51;;;;;;;7.03;1.60;;;8.90;1.00;;;;;;5071741;28;20865;-54
2023/04/12 03:09:18;;;;;;;6.03;2.10;;;9.60;1.00;;;;;;5072588;28;20946;-54
2023/04/12 03:11:45;;;;;;;6.70;1.80;;;8.80;1.00;;;;;;5071579;28;20644;-54
2023/04/12 03:14:11;;;;;;;7.90;1.70;;;8.80;1.00;;;;;;5072817;28;20513;-54
2023/04/12 03:16:36;;;;;;;7.75;1.50;;;8.70;1.00;;;;;;5072040;28;20466;-54
2023/04/12 03:19:04;;;;;;;5.33;1.90;;;8.70;1.00;;;;;;5072150;28;20407;-53
2023/04/12 03:21:32;;;;;;;6.68;1.90;;;8.70;1.00;;;;;;5071789;28;20795;-53
2023/04/12 03:23:57;;;;;;;6.53;1.70;;;8.80;1.00;;;;;;5072095;28;20479;-53
2023/04/12 03:26:25;;;;;;;6.60;1.85;;;8.70;1.00;;;;;;5071804;28;20816;-54
2023/04/12 03:28:57;;;;;;;6.70;2.28;;;8.60;1.00;;;;;;5072382;28;20489;-53
2023/04/12 03:31:23;;;;;;;10.80;2.80;;;8.50;1.00;;;;;;5071436;28;20788;-54
2023/04/12 03:33:49;;;;;;;10.63;2.20;;;8.50;1.00;;;;;;5072041;28;20412;-53
2023/04/12 03:36:14;;;;;;;6.93;2.30;;;8.50;1.00;;;;;;5072209;28;20372;-53
2023/04/12 03:38:40;;;;;;;7.43;2.65;;;8.40;1.00;;;;;;5071212;28;20811;-53
2023/04/12 03:41:06;;;;;;;10.80;1.80;;;8.40;1.00;;;;;;5072320;28;20376;-54
2023/04/12 03:43:34;;;;;;;7.70;2.50;;;8.30;1.00;;;;;;5071117;28;20856;-54
2023/04/12 03:46:02;;;;;;;6.60;2.30;;;8.30;1.00;;;;;;5072025;28;20384;-53
2023/04/12 03:48:28;;;;;;;7.47;2.50;;;8.30;1.00;;;;;;5070971;28;20841;-53
2023/04/12 03:50:53;;;;;;;9.13;2.60;;;8.30;1.00;;;;;;5071740;28;20457;-53
2023/04/12 03:53:20;;;;;;;10.10;3.10;;;8.30;1.00;;;;;;5070504;28;20396;-53
2023/04/12 03:55:45;;;;;;;8.50;2.90;;;8.30;1.00;;;;;;5070834;28;21006;-53
2023/04/12 03:58:12;;;;;;;9.93;3.20;;;8.30;1.00;;;;;;5071914;28;20391;-53
2023/04/12 04:00:38;;;;;;;10.25;3.20;;;8.40;1.00;;;;;;5071120;28;20398;-53
2023/04/12 04:03:04;;;;;;;7.82;2.67;;;8.30;1.00;;;;;;5071262;28;20403;-53
2023/04/12 04:05:30;;;;;;;8.68;3.10;;;8.30;1.00;;;;;;5070970;28;20837;-53
2023/04/12 04:07:59;;;;;;;8.50;2.90;;;8.30;1.00;;;;;;5071952;28;20502;-53
2023/04/12 04:10:28;;;;;;;8.43;3.15;;;8.40;1.00;;;;;;5071351;28;20868;-55
2023/04/12 04:12:54;;;;;;;8.77;2.50;;;8.40;1.00;;;;;;5071505;28;20422;-54
2023/04/12 04:15:20;;;;;;;8.33;3.00;;;9.90;1.00;;;;;;5071208;28;20415;-54
2023/04/12 04:17:47;;;;;;;9.63;3.42;;;8.40;1.00;;;;;;5069752;28;20902;-54
2023/04/12 04:20:13;;;;;;;9.40;3.40;;;8.40;1.00;;;;;;5071164;28;20383;-54
2023/04/12 04:22:38;;;;;;;11.90;3.30;;;8.20;1.00;;;;;;5070365;28;20410;-54
2023/04/12 04:25:05;;;;;;;10.13;3.22;;;8.20;1.00;;;;;;5071420;28;20409;-54
2023/04/12 04:27:33;;;;;;;10.50;3.08;;;8.20;1.00;;;;;;5070706;28;20903;-54
2023/04/12 04:30:01;;;;;;;8.77;3.00;;;8.20;1.00;;;;;;5070671;28;20415;-54
2023/04/12 04:32:27;;;;;;;7.90;3.10;;;8.80;1.00;;;;;;5070251;28;20408;-55
2023/04/12 04:34:56;;;;;;;10.07;3.20;;;8.30;1.00;;;;;;5070824;28;20849;-54
2023/04/12 04:37:23;;;;;;;11.52;3.05;;;8.20;1.00;;;;;;5070944;28;20699;-54
2023/04/12 04:39:49;;;;;;;10.07;2.40;;;8.20;1.00;;;;;;5070409;28;20873;-54
2023/04/12 04:42:15;;;;;;;7.63;2.45;;;8.20;1.00;;;;;;5070657;28;20392;-54
2023/04/12 04:44:41;;;;;;;9.30;2.70;;;9.30;1.00;;;;;;5069952;28;20379;-53
2023/04/12 04:47:07;;;;;;;11.15;3.10;;;8.20;1.00;;;;;;5071019;28;20386;-53
2023/04/12 04:49:33;;;;;;;6.80;2.58;;;8.10;1.00;;;;;;5069800;28;20375;-54
2023/04/12 04:51:59;;;;;;;10.40;3.00;;;8.20;1.00;;;;;;5070504;28;20411;-54
2023/04/12 04:54:24;;;;;;;7.93;2.90;;;8.30;1.00;;;;;;5070420;28;20413;-54
2023/04/12 04:56:50;;;;;;;6.70;2.28;;;8.40;1.00;;;;;;5069865;28;20408;-54
2023/04/12 04:59:16;;;;;;;8.37;2.83;;;8.40;1.00;;;;;;5069985;28;20818;-53
2023/04/12 05:01:42;;;;;;;8.82;3.30;;;8.20;1.00;;;;;;5069398;28;20979;-54
2023/04/12 05:04:08;;;;;;;8.40;2.57;;;8.20;1.00;;;;;;5070157;28;20371;-53
2023/04/12 05:06:35;;;;;;;8.60;2.60;;;8.20;1.00;;;;;;5069932;28;20411;-53
2023/04/12 05:09:00;;;;;;;7.88;2.60;;;8.10;1.00;;;;;;5070449;28;20479;-53
2023/04/12 05:11:26;;;;;;;7.90;2.10;;;9.80;1.00;;;;;;5070020;28;20490;-54
2023/04/12 05:13:52;;;;;;;7.07;2.15;;;8.10;1.00;;;;;;5070036;28;20860;-53
2023/04/12 05:16:18;;;;;;;5.70;1.80;;;8.20;1.00;;;;;;5069785;28;20446;-53
2023/04/12 05:18:43;;;;;;;5.45;1.70;;;8.20;1.00;;;;;;5051470;28;20879;-53
2023/04/12 05:21:09;;;;;;;6.88;1.73;;;8.00;1.00;;;;;;5070855;28;20387;-53
2023/04/12 05:23:36;;;;;;;6.67;2.00;;;9.40;1.00;;;;;;5068936;28;20884;-53
2023/04/12 05:26:02;;;;;;;6.88;2.10;;;8.10;1.00;;;;;;5070117;28;20387;-53
2023/04/12 05:28:28;;;;;;;7.18;1.90;;;8.10;1.00;;;;;;5068887;28;20407;-55
2023/04/12 05:30:54;;;;;;;6.20;2.28;;;8.10;1.00;;;;;;5069642;28;20572;-53
2023/04/12 05:33:21;;;;;;;7.20;2.00;;;8.10;1.00;;;;;;5069098;28;20454;-53
2023/04/12 05:35:47;;;;;;;8.60;2.10;;;9.90;1.00;;;;;;5068796;28;20426;-53
2023/04/12 05:38:12;;;;;;;7.53;1.55;;;8.10;1.10;;;;;;5069733;28;20380;-54
2023/04/12 05:40:38;;;;;;;5.17;1.63;;;8.20;3.70;;;;;;5069516;28;20879;-53
2023/04/12 05:43:03;;;;;;;4.82;1.60;;;8.70;6.30;;;;;;5069912;28;20391;-53
2023/04/12 05:45:29;;;;;;;6.00;1.93;;;8.10;4.00;;;;;;5069141;28;20380;-53
2023/04/12 05:47:55;;;;;;;5.28;1.38;;;8.80;16.30;;;;;;5070109;28;20838;-53
2023/04/12 05:50:20;;;;;;;4.77;1.50;;;9.50;21.20;;;;;;5069702;28;20388;-53
2023/04/12 05:52:49;;;;;;;4.38;0.93;;;8.00;25.70;;;;;;5068492;28;20429;-53
2023/04/12 05:55:16;;;;;;;5.17;1.27;;;8.00;25.70;;;;;;5070009;28;20384;-53
2023/04/12 05:57:45;;;;;;;7.25;1.70;;;8.10;29.00;;;;;;5068576;28;20379;-54
2023/04/12 06:00:17;;;;;;;5.00;1.45;;;8.80;27.90;;;;;;5069766;28;20936;-53
2023/04/12 06:02:47;;;;;;;7.07;1.67;;;8.10;31.40;;;;;;5069244;28;20376;-53
2023/04/12 06:05:14;;;;;;;5.30;1.40;;;8.10;34.20;;;;;;5062891;28;20395;-53
2023/04/12 06:07:49;;;;;;;7.33;1.80;;;9.80;31.90;;;;;;5069187;28;20445;-53
2023/04/12 06:10:16;;;;;;;4.93;1.60;;;8.20;29.30;;;;;;5069660;28;20395;-53
2023/04/12 06:12:41;;;;;;;8.52;1.52;;;8.20;21.40;;;;;;5068636;28;20411;-53
2023/04/12 06:15:07;;;;;;;4.30;1.13;;;8.20;26.00;;;;;;5070304;28;20384;-53
2023/04/12 06:17:35;;;;;;;4.93;1.88;;;8.20;28.40;;;;;;5072980;28;20462;-53
2023/04/12 06:20:04;;;;;;;5.00;1.52;;;8.30;25.00;;;;;;5073338;28;20388;-53
2023/04/12 06:22:30;;;;;;;4.90;1.83;;;9.70;23.40;;;;;;5073293;28;20388;-53
2023/04/12 06:24:57;;;;;;;3.60;0.80;;;8.30;22.20;;;;;;5073341;28;20380;-53
2023/04/12 06:27:24;;;;;;;6.00;1.63;;;8.50;18.60;;;;;;5072933;28;20474;-53
2023/04/12 06:29:50;;;;;;;4.82;1.17;;;8.20;29.60;;;;;;5072339;28;20438;-53
2023/04/12 06:32:16;;;;;;;5.35;1.48;;;8.30;28.30;;;;;;5073076;28;20808;-53
2023/04/12 06:34:41;;;;;;;11.60;2.05;;;8.30;27.20;;;;;;5072874;28;20379;-53
2023/04/12 06:37:07;;;;;;;5.10;1.20;;;8.40;25.70;;;;;;5073584;28;20425;-53
2023/04/12 06:39:32;;;;;;;3.80;0.90;;;8.40;23.80;;;;;;5072061;28;20788;-53
2023/04/12 06:41:58;;;;;;;7.28;2.00;;;8.40;15.40;;;;;;5054970;28;20474;-53
2023/04/12 06:44:26;;;;;;;4.50;0.90;;;8.40;9.90;;;;;;5073258;28;20384;-53
2023/04/12 06:46:51;;;;;;;6.43;1.40;;;8.50;19.30;;;;;;5072507;28;20398;-52
2023/04/12 06:49:17;;;;;;;3.80;0.80;;;8.40;15.80;;;;;;5055329;28;20474;-53
2023/04/12 06:51:43;;;;;;;5.03;1.47;;;8.40;13.30;;;;;;5072104;28;20738;-53
2023/04/12 06:54:09;;;;;;;4.63;0.80;;;8.50;20.10;;;;;;5072440;28;20422;-54
2023/04/12 06:56:36;;;;;;;6.80;1.40;;;8.50;9.80;;;;;;5071935;28;20376;-54
2023/04/12 06:59:02;;;;;;;4.13;1.10;;;9.30;7.80;;;;;;5073179;28;20884;-54
2023/04/12 07:01:28;;;;;;;5.00;1.00;;;8.60;8.20;;;;;;5071855;28;20407;-55
2023/04/12 07:03:53;;;;;;;6.00;1.30;;;8.60;1.90;;;;;;5072412;28;20380;-54
2023/04/12 07:06:19;;;;;;;4.97;1.47;;;8.60;9.10;;;;;;5072595;28;20384;-54
2023/04/12 07:08:45;;;;;;;4.70;1.27;;;8.60;11.00;;;;;;5072210;28;20372;-54
2023/04/12 07:11:10;;;;;;;4.70;0.90;;;9.10;3.80;;;;;;5072759;28;20419;-54
2023/04/12 07:13:36;;;;;;;3.72;0.75;;;8.70;1.00;;;;;;5071816;28;20388;-54
2023/04/12 07:16:02;;;;;;;5.80;1.70;;;8.80;1.00;;;;;;5072659;28;20384;-54
2023/04/12 07:18:28;;;;;;;5.35;0.70;;;8.80;1.00;;;;;;5072114;28;20402;-55
2023/04/12 07:20:55;;;;;;;4.90;1.17;;;8.80;1.00;;;;;;5071769;28;20914;-54
2023/04/12 07:23:21;;;;;;;6.10;1.20;;;10.70;1.00;;;;;;5072553;28;20383;-54
2023/04/12 07:25:47;;;;;;;5.57;1.65;;;9.00;6.30;;;;;;5071763;28;20372;-56
2023/04/12 07:28:12;;;;;;;3.90;1.08;;;9.10;1.00;;;;;;5071150;28;20577;-56
2023/04/12 07:30:39;;;;;;;5.63;1.80;;;9.10;1.00;;;;;;5071673;28;20730;-55
2023/04/12 07:33:05;;;;;;;4.28;1.08;;;10.00;1.00;;;;;;5072389;28;20733;-52
2023/04/12 07:35:32;;;;;;;4.55;1.00;;;9.20;1.00;;;;;;5071025;28;20391;-54
2023/04/12 07:37:58;;;;;;;4.30;1.10;;;9.10;1.00;;;;;;5072006;28;20429;-54
2023/04/12 07:40:25;;;;;;;6.10;1.50;;;9.20;1.00;;;;;;5072114;28;20380;-54
2023/04/12 07:42:50;;;;;;;5.72;0.90;;;9.20;1.00;;;;;;5071438;28;20396;-53
2023/04/12 07:45:18;;;;;;;5.00;1.27;;;9.30;1.00;;;;;;5072327;28;20476;-54
2023/04/12 07:47:43;;;;;;;4.97;1.30;;;9.40;1.00;;;;;;5071518;28;20807;-53
2023/04/12 07:50:10;;;;;;;5.20;1.20;;;9.40;1.00;;;;;;5071924;28;20472;-53
2023/04/12 07:52:35;;;;;;;4.25;0.90;;;9.50;1.00;;;;;;5070925;28;20494;-53
2023/04/12 07:55:01;;;;;;;5.78;1.02;;;9.50;1.00;;;;;;5072182;28;20467;-53
2023/04/12 07:57:26;;;;;;;5.27;1.50;;;9.50;1.00;;;;;;5071800;28;20471;-54
2023/04/12 07:59:52;;;;;;;5.10;1.30;;;9.60;1.00;;;;;;5070681;28;20403;-53
2023/04/12 08:02:23;;;;;;;4.00;1.08;;;9.60;1.00;;;;;;5071937;28;20437;-53
2023/04/12 08:04:55;;;;;;;5.00;1.38;;;9.70;1.00;;;;;;5070564;28;20991;-53
2023/04/12 08:07:23;;;;;;;4.10;1.10;;;9.90;1.00;;;;;;5071089;28;20384;-53
2023/04/12 08:09:49;;;;;;;5.03;1.27;;;9.90;1.00;;;;;;5070734;28;20376;-54
2023/04/12 08:12:15;;;;;;;4.80;1.40;;;10.10;1.00;;;;;;5071273;28;20407;-53
2023/04/12 08:14:42;;;;;;;6.80;1.20;;;10.20;1.00;;;;;;5070370;28;20395;-54
2023/04/12 08:17:08;;;;;;;4.30;1.40;;;10.20;1.00;;;;;;5071046;28;20475;-54
2023/04/12 08:19:34;;;;;;;5.10;1.50;;;10.30;1.00;;;;;;5070099;28;20471;-54
2023/04/12 08:22:00;;;;;;;4.63;1.42;;;10.40;1.00;;;;;;5071291;28;20383;-53
2023/04/12 08:24:26;;;;;;;5.47;1.70;;;10.30;1.00;;;;;;5070873;28;20395;-54
2023/04/12 08:26:52;;;;;;;8.90;2.65;;;10.30;1.00;;;;;;5070669;28;20416;-53
2023/04/12 08:29:17;;;;;;;6.07;2.00;;;10.20;1.00;;;;;;5070746;28;20438;-54
2023/04/12 08:31:44;;;;;;;5.30;1.80;;;10.20;1.00;;;;;;5070246;28;20412;-54
2023/04/12 08:34:10;;;;;;;7.50;2.00;;;10.30;1.00;;;;;;5071055;28;20376;-53
2023/04/12 08:36:35;;;;;;;6.25;2.10;;;10.30;1.00;;;;;;5070028;28;20375;-54
2023/04/12 08:39:01;;;;;;;7.00;2.50;;;10.40;1.00;;;;;;5070577;28;20451;-54
2023/04/12 08:41:27;;;;;;;7.07;2.28;;;10.60;1.00;;;;;;5070860;28;20419;-54
2023/04/12 08:43:56;;;;;;;7.13;2.37;;;10.60;1.00;;;;;;5070212;28;20915;-53
2023/04/12 08:46:22;;;;;;;7.15;2.10;;;10.60;1.00;;;;;;5070620;28;20379;-54
2023/04/12 08:48:49;;;;;;;6.63;2.00;;;10.60;1.00;;;;;;5069992;28;20371;-54
2023/04/12 08:51:17;;;;;;;6.70;2.30;;;10.50;1.00;;;;;;5070589;28;20414;-54
2023/04/12 08:53:43;;;;;;;5.97;1.95;;;10.50;1.00;;;;;;5069571;28;20865;-54
2023/04/12 08:56:10;;;;;;;6.28;2.20;;;10.70;1.00;;;;;;5070661;28;20425;-54
2023/04/12 08:58:43;;;;;;;6.78;1.90;;;10.90;1.00;;;;;;5069707;28;20475;-54
2023/04/12 09:01:14;;;;;;;5.30;1.70;;;10.90;1.00;;;;;;5070431;28;20940;-54
2023/04/12 09:03:41;;;;;;;6.40;2.00;;;11.00;1.00;;;;;;5069589;28;20383;-54
2023/04/12 09:06:07;;;;;;;5.57;1.83;;;11.00;1.00;;;;;;5070586;28;20429;-54
2023/04/12 09:08:34;;;;;;;7.35;2.00;;;11.00;1.00;;;;;;5069581;28;20380;-54
2023/04/12 09:10:59;;;;;;;5.28;1.52;;;11.20;1.00;;;;;;5070288;28;20407;-54
2023/04/12 09:13:35;;;;;;;6.53;1.70;;;11.40;1.00;;;;;;5070355;28;20380;-54
2023/04/12 09:16:02;;;;;;;5.55;1.85;;;11.40;1.00;;;;;;5070418;28;20384;-54
2023/04/12 09:18:28;;;;;;;7.95;1.85;;;11.40;1.00;;;;;;5070735;28;20410;-54
2023/04/12 09:21:07;;;;;;;5.70;1.85;;;11.50;99.90;;;;;;5069799;28;20380;-54
2023/04/12 09:23:35;;;;;;;6.00;1.50;;;11.50;99.90;;;;;;5069417;28;20372;-55
2023/04/12 09:26:00;;;;;;;6.00;1.93;;;11.40;99.90;;;;;;5070531;28;20532;-54
2023/04/12 09:28:28;;;;;;;4.90;1.30;;;11.50;99.90;;;;;;5070023;28;20425;-54
2023/04/12 09:30:59;;;;;;;6.70;1.77;;;11.40;99.90;;;;;;5069390;28;20466;-54
2023/04/12 09:33:38;;;;;;;9.00;1.70;;;11.60;99.90;;;;;;5069738;28;20372;-54
2023/04/12 09:36:05;;;;;;;5.70;1.40;;;11.70;99.90;;;;;;5069942;28;20414;-54
2023/04/12 09:38:32;;;;;;;8.52;1.50;;;11.60;99.90;;;;;;5069140;28;20472;-55
2023/04/12 09:41:18;;;;;;;6.03;1.77;;;11.70;99.90;;;;;;5069981;28;20380;-55
2023/04/12 09:43:44;;;;;;;7.37;1.40;;;11.90;99.90;;;;;;5069009;28;20396;-54
2023/04/12 09:46:12;;;;;;;5.45;1.40;;;12.10;99.90;;;;;;5069585;28;20371;-54
2023/04/12 09:48:47;;;;;;;5.78;1.45;;;12.10;1.00;;;;;;5069123;28;20398;-55
2023/04/12 09:51:13;;;;;;;7.23;1.60;;;12.10;99.90;;;;;;5069019;28;20408;-55
2023/04/12 09:53:42;;;;;;;7.13;1.63;;;12.10;1.00;;;;;;5068944;28;20390;-55
2023/04/12 09:56:11;;;;;;;5.80;1.30;;;12.20;1.00;;;;;;5068104;28;20750;-54
2023/04/12 09:58:38;;;;;;;8.10;1.55;;;12.30;1.00;;;;;;5068883;28;20395;-54
2023/04/12 10:01:08;;;;;;;5.57;1.50;;;12.20;99.90;;;;;;5069870;28;20388;-54
2023/04/12 10:03:34;;;;;;;6.43;1.83;;;12.20;99.90;;;;;;5068755;28;20380;-55
2023/04/12 10:06:03;;;;;;;5.30;1.30;;;12.30;1.70;;;;;;5069732;28;20718;-54
2023/04/12 10:08:30;;;;;;;6.05;1.40;;;12.20;1.00;;;;;;5069353;28;20391;-54
2023/04/12 10:10:56;;;;;;;6.57;1.30;;;12.20;1.00;;;;;;5069411;28;20380;-54
2023/04/12 10:13:22;;;;;;;6.03;1.20;;;12.40;99.90;;;;;;5069316;28;20388;-54
2023/04/12 10:15:50;;;;;;;5.70;1.30;;;12.30;1.00;;;;;;5069388;28;20396;-54
2023/04/12 10:18:17;;;;;;;5.65;1.40;;;12.30;1.00;;;;;;5069339;28;20390;-54
2023/04/12 10:20:45;;;;;;;6.45;1.50;;;12.40;1.00;;;;;;5068839;28;20410;-54
2023/04/12 10:23:11;;;;;;;5.15;1.17;;;12.40;1.00;;;;;;5069570;28;20774;-54
2023/04/12 10:25:39;;;;;;;5.47;1.55;;;12.40;1.00;;;;;;5068840;28;20813;-54
2023/04/12 10:28:16;;;;;;;5.10;1.30;;;12.60;1.00;;;;;;5069307;28;20415;-54
2023/04/12 10:30:42;;;;;;;5.80;1.50;;;12.90;7.70;;;;;;5068706;28;20489;-54
2023/04/12 10:33:12;;;;;;;4.75;1.20;;;13.10;99.90;;;;;;5069683;28;20434;-54
2023/04/12 10:35:47;;;;;;;6.28;1.17;;;13.20;1.00;;;;;;5068406;28;20380;-54
2023/04/12 10:38:13;;;;;;;5.20;1.25;;;13.10;99.90;;;;;;5069098;28;20391;-54
2023/04/12 10:41:17;;;;;;;6.13;1.50;;;13.00;99.90;;;;;;5068437;28;20380;-54
2023/04/12 10:43:43;;;;;;;5.47;1.58;;;12.90;99.90;;;;;;5068557;28;20376;-54
2023/04/12 10:46:39;;;;;;;4.90;1.10;;;13.10;99.90;;;;;;5069062;28;20775;-55
2023/04/12 10:49:12;;;;;;;4.80;1.30;;;13.50;99.90;;;;;;5069017;28;20414;-54
2023/04/12 10:51:38;;;;;;;4.97;1.10;;;13.70;1.00;;;;;;5068230;28;20414;-54
2023/04/12 10:54:07;;;;;;;6.27;1.50;;;13.70;99.90;;;;;;5069370;28;20375;-54
2023/04/12 10:56:40;;;;;;;5.47;1.20;;;13.60;64.60;;;;;;5068753;28;20384;-55
2023/04/12 10:59:07;;;;;;;6.32;1.13;;;13.70;1.00;;;;;;5069171;28;20423;-54
2023/04/12 11:01:34;;;;;;;5.90;1.20;;;13.90;99.90;;;;;;5069984;28;20430;-54
2023/04/12 11:04:18;;;;;;;6.80;1.20;;;14.10;1.00;;;;;;5072625;28;20713;-54
2023/04/12 11:07:00;;;;;;;4.63;1.08;;;14.00;99.90;;;;;;5072295;28;20422;-54
2023/04/12 11:09:39;;;;;;;5.72;1.33;;;14.00;99.90;;;;;;5072289;28;20383;-54
2023/04/12 11:12:05;;;;;;;6.45;1.20;;;14.40;99.90;;;;;;5072125;28;20422;-54
2023/04/12 11:15:00;;;;;;;5.07;0.93;;;14.50;1.00;;;;;;5072051;28;20869;-55
2023/04/12 11:17:26;;;;;;;5.45;1.30;;;14.30;1.00;;;;;;5070294;28;20505;-54
2023/04/12 11:19:58;;;;;;;5.32;1.30;;;14.50;99.80;;;;;;5072192;28;20991;-54
2023/04/12 11:22:29;;;;;;;5.20;1.20;;;14.50;1.00;;;;;;5072507;28;20936;-54
2023/04/12 11:24:56;;;;;;;6.90;1.30;;;14.20;99.90;;;;;;5071528;28;20375;-54
2023/04/12 11:27:24;;;;;;;5.95;1.10;;;14.30;99.90;;;;;;5072226;28;20433;-54
2023/04/12 11:29:53;;;;;;;4.30;0.90;;;14.10;1.00;;;;;;5071510;28;20714;-54
2023/04/12 11:32:20;;;;;;;5.68;1.10;;;13.80;1.00;;;;;;5072566;28;20799;-54
2023/04/12 11:34:46;;;;;;;4.80;0.93;;;13.60;99.90;;;;;;5071909;28;20467;-54
2023/04/12 11:37:12;;;;;;;5.60;1.10;;;13.80;99.90;;;;;;5072683;28;20470;-54
2023/04/12 11:39:40;;;;;;;5.47;1.30;;;14.10;43.00;;;;;;5070801;28;20779;-54
2023/04/12 11:42:07;;;;;;;5.70;1.20;;;14.20;99.90;;;;;;5071855;28;20770;-54
2023/04/12 11:44:34;;;;;;;4.63;0.90;;;14.40;1.00;;;;;;5071195;28;20857;-55
2023/04/12 11:47:02;;;;;;;5.60;0.90;;;14.80;1.00;;;;;;5072163;28;20419;-54
2023/04/12 11:49:28;;;;;;;4.70;1.00;;;15.00;99.90;;;;;;5071738;28;20403;-55
2023/04/12 11:52:02;;;;;;;4.38;0.88;;;14.70;99.90;;;;;;5071301;28;20473;-54
2023/04/12 11:54:29;;;;;;;5.60;1.10;;;14.80;99.90;;;;;;5071730;28;20449;-54
2023/04/12 11:56:56;;;;;;;4.50;0.90;;;15.20;99.90;;;;;;5071426;28;20430;-55
2023/04/12 11:59:22;;;;;;;5.43;1.10;;;15.00;99.90;;;;;;5072108;28;20399;-54
2023/04/12 12:01:50;;;;;;;4.53;1.00;;;14.80;99.90;;;;;;5071813;28;20498;-54
2023/04/12 12:04:16;;;;;;;4.90;0.90;;;14.80;99.90;;;;;;5071787;28;20368;-55
2023/04/12 12:06:42;;;;;;;4.70;0.80;;;15.10;99.90;;;;;;5070479;28;20757;-55
2023/04/12 12:09:10;;;;;;;5.00;0.70;;;14.80;99.90;;;;;;5071426;28;20880;-54
2023/04/12 12:11:37;;;;;;;4.55;0.90;;;14.70;99.90;;;;;;5070739;28;20398;-55
2023/04/12 12:14:03;;;;;;;5.10;1.03;;;14.80;99.90;;;;;;5070969;28;20429;-54
2023/04/12 12:16:29;;;;;;;5.28;1.00;;;14.80;99.90;;;;;;5072121;28;20841;-54
2023/04/12 12:18:55;;;;;;;5.22;1.10;;;14.80;99.90;;;;;;5070904;28;20754;-54
2023/04/12 12:21:21;;;;;;;5.90;1.00;;;14.80;99.90;;;;;;5071206;28;20713;-54
2023/04/12 12:23:47;;;;;;;5.07;1.00;;;14.80;99.90;;;;;;5070913;28;20378;-54
2023/04/12 12:26:29;;;;;;;5.25;1.00;;;14.80;99.90;;;;;;5071251;28;20379;-54
2023/04/12 12:28:58;;;;;;;5.43;0.90;;;14.90;99.90;;;;;;5070551;28;20418;-54
2023/04/12 12:31:27;;;;;;;5.00;0.80;;;15.10;99.90;;;;;;5071432;28;20803;-55
2023/04/12 12:33:57;;;;;;;7.07;1.15;;;15.10;99.90;;;;;;5070284;28;20375;-54
2023/04/12 12:36:34;;;;;;;4.70;0.90;;;15.10;99.90;;;;;;5070903;28;20852;-54
2023/04/12 12:39:18;;;;;;;4.53;0.90;;;15.00;99.90;;;;;;5070870;28;20379;-55
2023/04/12 12:41:51;;;;;;;4.50;0.70;;;14.80;99.90;;;;;;5070421;28;20390;-55
2023/04/12 12:44:17;;;;;;;5.68;1.10;;;14.90;99.90;;;;;;5070697;28;20388;-54
2023/04/12 12:46:43;;;;;;;4.60;0.87;;;15.20;99.90;;;;;;5070491;28;20413;-54
2023/04/12 12:49:08;;;;;;;4.90;0.90;;;15.30;67.20;;;;;;5070870;28;20883;-54
2023/04/12 12:51:34;;;;;;;4.80;1.00;;;15.50;92.30;;;;;;5069864;28;20400;-55
2023/04/12 12:53:59;;;;;;;5.28;1.00;;;15.40;13.40;;;;;;5071021;28;20376;-54
2023/04/12 12:56:25;;;;;;;5.40;0.80;;;15.40;3.70;;;;;;5070587;28;20418;-54
2023/04/12 12:58:51;;;;;;;4.50;0.80;;;15.20;1.00;;;;;;5069403;28;20499;-54
2023/04/12 13:01:16;;;;;;;4.45;0.80;;;15.00;1.00;;;;;;5070676;28;20857;-54